Stations météo

réclame
Mon MeteoGroup
Merida, Espagne (8331): Température de l'air & dewpoint: 11.12.2017 07:00:00 - 17.12.2017 07:00:00 (CET)Merida, Espagne (8331): Vitesse du vent & gusts: 11.12.2017 07:00:00 - 17.12.2017 07:00:00 (CET)Merida, Espagne (8331): Direction du vent: 11.12.2017 07:00:00 - 17.12.2017 07:00:00 (CET)Merida, Espagne (8331): Quantités de précipitations: 11.12.2017 07:00:00 - 17.12.2017 07:00:00 (CET)
Date & Time tt [°C] td [°C] ff [km/h] ff [knt] fx [km/h] fx [knt] dd rr [mm]
17.12.2017 07:00:00 - - - - - - - -
17.12.2017 06:00:00 -0,2 -0,3 0 0 4 2 ESE 0,0
17.12.2017 05:00:00 -0,3 -0,5 3 1 5 3 E 0,0
17.12.2017 04:00:00 0,2 0,0 0 0 3 2 N 0,0
17.12.2017 03:00:00 0,4 0,2 0 0 5 3 N 0,0
17.12.2017 02:00:00 1,5 1,3 0 0 10 5 W 0,0
17.12.2017 01:00:00 2,7 2,5 3 2 7 4 E -
17.12.2017 00:00:00 1,3 1,1 0 0 5 3 N 0,0
16.12.2017 23:00:00 2,6 2,5 1 0 6 3 SE 0,0
16.12.2017 22:00:00 2,6 2,5 0 0 3 2 E 0,0
16.12.2017 21:00:00 4,2 4,1 1 1 10 6 SE 0,0
16.12.2017 20:00:00 4,8 4,6 2 1 3 2 SSE 0,0
16.12.2017 19:00:00 5,3 4,1 0 0 4 2 S -
16.12.2017 18:00:00 8,7 1,7 3 1 7 4 SSW 0,0
16.12.2017 17:00:00 14,0 2,3 5 3 9 5 W 0,0
16.12.2017 16:00:00 13,6 1,9 4 2 9 5 E 0,0
16.12.2017 15:00:00 13,8 2,3 3 2 10 5 E 0,0
16.12.2017 14:00:00 12,8 3,2 4 2 10 5 ESE 0,0
16.12.2017 13:00:00 11,4 2,1 3 2 8 4 E -
16.12.2017 12:00:00 11,3 3,8 3 1 6 4 NNE 0,0
16.12.2017 11:00:00 8,9 4,3 4 2 9 5 W 0,0
16.12.2017 10:00:00 6,2 3,9 6 4 9 5 WSW 0,0
16.12.2017 09:00:00 1,6 1,5 4 2 8 5 SW 0,0
16.12.2017 08:00:00 2,4 2,3 6 4 9 5 WSW 0,0
16.12.2017 07:00:00 1,8 1,7 5 3 9 5 WSW -
16.12.2017 06:00:00 2,7 1,9 4 2 7 4 WSW 0,0
16.12.2017 05:00:00 4,7 2,1 1 0 11 6 E 0,0
16.12.2017 04:00:00 6,1 2,7 1 1 16 8 N 0,0
16.12.2017 03:00:00 5,3 3,0 2 1 20 11 S 0,0
16.12.2017 02:00:00 5,0 3,4 1 0 13 7 W 0,0
16.12.2017 01:00:00 6,1 4,8 5 3 13 7 WSW -
16.12.2017 00:00:00 6,8 5,0 7 4 16 9 W 0,0
15.12.2017 23:00:00 6,6 4,5 2 1 13 7 W 0,0
15.12.2017 22:00:00 7,9 6,1 6 4 15 8 W 0,0
15.12.2017 21:00:00 7,5 7,4 6 3 11 6 WSW 0,0
15.12.2017 20:00:00 10,1 8,5 5 3 19 11 NW 0,0
15.12.2017 19:00:00 10,8 10,6 7 4 23 12 WNW -
15.12.2017 18:00:00 13,5 13,4 13 7 18 10 WSW 0,0
15.12.2017 17:00:00 13,9 13,8 14 8 31 17 WSW 3,0
15.12.2017 16:00:00 14,7 14,5 16 9 36 19 WSW 0,0
15.12.2017 15:00:00 14,3 14,1 13 7 34 19 W 0,4
15.12.2017 14:00:00 15,4 15,3 21 11 37 20 WSW 0,0
15.12.2017 13:00:00 15,6 15,4 22 12 37 20 WSW -
15.12.2017 12:00:00 14,3 14,1 18 10 32 17 WSW 0,1
15.12.2017 11:00:00 13,7 13,6 16 8 32 17 SW 0,0
15.12.2017 10:00:00 13,1 13,0 14 8 23 12 SW 0,0
15.12.2017 09:00:00 12,1 12,0 9 5 17 9 SW 0,0
15.12.2017 08:00:00 11,9 11,8 6 3 14 7 SW 0,0
15.12.2017 07:00:00 11,6 11,4 6 4 12 6 SW -
15.12.2017 06:00:00 11,5 11,3 10 5 19 11 WSW 0,0
15.12.2017 05:00:00 11,7 11,6 10 5 21 11 SW 0,0
15.12.2017 04:00:00 11,8 11,7 8 5 24 13 WSW 0,0
15.12.2017 03:00:00 12,1 12,0 15 8 26 14 WSW 0,0
15.12.2017 02:00:00 12,6 12,4 16 8 29 16 WSW 0,0
15.12.2017 01:00:00 12,7 12,5 10 5 29 16 W -
15.12.2017 00:00:00 12,7 12,5 13 7 23 13 WSW 0,0
14.12.2017 23:00:00 12,6 12,4 14 8 23 12 SW 0,0
14.12.2017 22:00:00 12,5 12,3 8 4 21 11 SSW 0,0
14.12.2017 21:00:00 12,7 12,5 13 7 23 12 SW 0,0
14.12.2017 20:00:00 12,7 12,5 9 5 17 9 SW 0,1
14.12.2017 19:00:00 12,8 12,6 11 6 26 14 WSW -
14.12.2017 18:00:00 13,0 12,8 14 8 29 16 WSW 0,9
14.12.2017 17:00:00 13,2 13,1 11 6 27 15 SW 0,0
14.12.2017 16:00:00 13,6 13,5 16 8 29 16 WSW 0,0
14.12.2017 15:00:00 14,1 13,9 23 12 34 18 WSW 0,0
14.12.2017 14:00:00 14,8 14,6 16 9 27 14 SW 0,0
14.12.2017 13:00:00 12,9 12,7 14 7 26 14 WSW -
14.12.2017 12:00:00 12,2 12,0 13 7 24 13 WSW 0,0
14.12.2017 11:00:00 11,0 10,9 9 5 18 10 WSW 0,0
14.12.2017 10:00:00 10,0 9,8 6 3 10 6 WSW 0,1
14.12.2017 09:00:00 9,5 9,3 4 2 8 4 W 0,1
14.12.2017 08:00:00 9,3 9,2 4 2 9 5 WSW 0,2
14.12.2017 07:00:00 8,8 8,7 1 0 4 2 W -
14.12.2017 06:00:00 9,0 8,8 2 1 5 3 WNW 0,0
14.12.2017 05:00:00 9,3 9,2 1 1 5 3 NNW 0,0
14.12.2017 04:00:00 9,4 9,3 1 1 7 4 WSW 0,0
14.12.2017 03:00:00 8,9 8,8 4 2 8 4 WSW 0,0
14.12.2017 02:00:00 8,5 8,4 1 1 5 3 W 0,0
14.12.2017 01:00:00 8,1 8,0 3 2 5 3 WSW -
14.12.2017 00:00:00 7,4 7,0 0 0 3 2 WSW 0,0
13.12.2017 23:00:00 7,2 6,5 0 0 6 3 E 0,0
13.12.2017 22:00:00 9,0 6,2 0 0 4 2 NE 0,0
13.12.2017 21:00:00 10,1 6,2 5 3 8 5 S 0,0
13.12.2017 20:00:00 10,0 6,1 1 0 6 3 SW 0,0
13.12.2017 19:00:00 9,6 6,2 2 1 3 2 SW -
13.12.2017 18:00:00 11,3 4,1 0 0 8 5 W 0,0
13.12.2017 17:00:00 13,0 3,6 5 3 11 6 NW 0,0
13.12.2017 16:00:00 15,0 3,2 5 3 10 5 W 0,0
13.12.2017 15:00:00 14,8 3,6 3 2 9 5 W 0,0
13.12.2017 14:00:00 13,5 4,1 5 3 11 6 E 0,0
13.12.2017 13:00:00 11,2 4,6 8 5 19 10 E -
13.12.2017 12:00:00 9,0 5,3 9 5 14 7 ESE 0,0
13.12.2017 11:00:00 8,1 4,5 1 1 8 4 NE 0,0
13.12.2017 10:00:00 5,0 4,8 3 2 9 5 NE 0,0
13.12.2017 09:00:00 1,4 1,3 5 3 9 5 E 0,0
13.12.2017 08:00:00 1,5 1,3 6 3 12 7 E 0,0
13.12.2017 07:00:00 1,7 1,5 8 5 11 6 E -
13.12.2017 06:00:00 -0,1 -0,3 0 0 3 2 S 0,0
13.12.2017 05:00:00 0,6 0,4 1 1 8 4 ENE 0,0
13.12.2017 04:00:00 1,7 1,5 5 3 7 4 ENE 0,0
13.12.2017 03:00:00 0,9 0,9 1 0 6 4 NE 0,0
13.12.2017 02:00:00 1,3 1,1 0 0 4 2 SSE 0,0
13.12.2017 01:00:00 1,0 0,9 0 0 2 1 E -
13.12.2017 00:00:00 2,2 2,1 1 1 3 2 SSE 0,0
12.12.2017 23:00:00 2,1 1,9 0 0 3 2 ENE 0,0
12.12.2017 22:00:00 3,0 2,9 1 0 4 2 SE 0,0
12.12.2017 21:00:00 3,6 3,4 1 0 5 3 ENE 0,0
12.12.2017 20:00:00 4,7 3,6 3 1 5 3 SSW 0,0
12.12.2017 19:00:00 6,0 3,6 3 2 7 4 W -
12.12.2017 18:00:00 9,4 2,7 5 3 12 6 WNW 0,0
12.12.2017 17:00:00 13,8 2,3 4 2 12 7 WNW 0,0
12.12.2017 16:00:00 13,2 2,1 5 3 14 7 WNW 0,0
12.12.2017 15:00:00 12,4 2,9 6 3 13 7 SW 0,0
12.12.2017 14:00:00 13,0 3,6 6 3 15 8 WSW 0,0
12.12.2017 13:00:00 12,2 2,9 5 3 12 6 W -
12.12.2017 12:00:00 10,8 3,6 5 3 11 6 W 0,0
12.12.2017 11:00:00 7,5 3,6 7 4 12 7 SW 0,0
12.12.2017 10:00:00 6,8 3,0 2 1 9 5 WSW 0,0
12.12.2017 09:00:00 1,6 1,5 3 2 8 4 S 0,0
12.12.2017 08:00:00 1,5 1,3 1 1 5 3 W 0,0
12.12.2017 07:00:00 1,7 1,3 0 0 9 5 E -
12.12.2017 06:00:00 2,0 1,3 6 4 8 5 S 0,0
12.12.2017 05:00:00 3,8 1,1 2 1 21 11 W 0,0
12.12.2017 04:00:00 5,2 1,7 10 6 22 12 NW 0,0
12.12.2017 03:00:00 5,2 1,7 12 7 23 12 NW 0,0
12.12.2017 02:00:00 4,5 1,7 5 3 17 9 WNW 0,0
12.12.2017 01:00:00 5,4 2,1 9 5 17 9 WNW -
12.12.2017 00:00:00 5,6 3,2 5 3 15 8 WNW 0,0
11.12.2017 23:00:00 5,8 5,6 11 6 22 12 WSW 0,0
11.12.2017 22:00:00 6,5 6,4 12 6 20 11 WSW 0,0
11.12.2017 21:00:00 7,1 7,0 11 6 19 10 WSW 0,0
11.12.2017 20:00:00 7,7 6,8 12 6 23 12 WSW 0,0
11.12.2017 19:00:00 8,7 7,1 18 10 32 17 WSW -
11.12.2017 18:00:00 9,5 6,4 20 11 39 21 W 0,0
11.12.2017 17:00:00 9,8 6,8 21 11 48 26 W 0,0
11.12.2017 16:00:00 11,3 7,3 23 12 47 26 WSW 0,1
11.12.2017 15:00:00 11,9 7,0 18 10 - - WSW -
11.12.2017 14:00:00 - - - - - - - -
11.12.2017 13:00:00 - - - - - - - -
11.12.2017 12:00:00 - - - - - - - -
11.12.2017 11:00:00 - - - - - - - -
11.12.2017 10:00:00 - - - - - - - -
11.12.2017 09:00:00 - - - - - - - -
11.12.2017 08:00:00 - - - - - - - -
11.12.2017 07:00:00 - - - - - - - -

tt = Température de l'air
td = dewpoint
ff = Vitesse du vent
fx = gusts
dd = Direction du vent
rr = Quantités de précipitations

stations d'obs. à proximité